Time;durP1;ratioP1;P1;durP2;ratioP2;P2;SDS_P1;SDS_P2;PMS_P1;PMS_P2;Temp;Humidity;BMP_temperature;BMP_pressure;BME280_temperature;BME280_humidity;BME280_pressure;Samples;Min_cycle;Max_cycle;Signal;HPM_P1;HPM_P2
2022/11/14 00:00:57;;;;;;;54.80;36.03;;;;;;;6.45;100.00;154151.19;4993681;28;20033;-74
2022/11/14 00:03:41;;;;;;;50.47;34.70;;;;;;;6.44;100.00;154149.88;5007417;28;20708;-74
2022/11/14 00:06:26;;;;;;;55.78;36.88;;;;;;;6.42;100.00;154144.78;5006920;28;20075;-74
2022/11/14 00:09:10;;;;;;;54.88;36.42;;;;;;;6.38;100.00;154134.56;5006963;28;20044;-73
2022/11/14 00:11:55;;;;;;;53.38;36.08;;;;;;;6.37;100.00;154132.03;5004173;28;20582;-74
2022/11/14 00:14:39;;;;;;;54.85;35.08;;;;;;;6.37;100.00;154133.28;5007671;28;20048;-74
2022/11/14 00:17:23;;;;;;;56.75;36.72;;;;;;;6.33;100.00;154123.06;5006224;28;20112;-74
2022/11/14 00:20:10;;;;;;;56.97;37.83;;;;;;;6.28;100.00;154110.25;5002305;28;20031;-75
2022/11/14 00:22:54;;;;;;;57.53;37.05;;;;;;;6.30;100.00;154114.09;5008821;28;20450;-75
2022/11/14 00:25:39;;;;;;;58.95;38.97;;;;;;;6.28;100.00;154108.97;5004950;28;20037;-74
2022/11/14 00:28:23;;;;;;;55.85;37.00;;;;;;;6.29;100.00;154112.84;5006407;28;20057;-75
2022/11/14 00:31:08;;;;;;;59.97;38.28;;;;;;;6.30;100.00;154114.09;5002616;28;20030;-74
2022/11/14 00:33:52;;;;;;;57.15;37.35;;;;;;;6.31;100.00;154117.94;5006586;28;20034;-74
2022/11/14 00:36:36;;;;;;;56.20;36.90;;;;;;;6.30;100.00;154114.09;4996167;28;20033;-75
2022/11/14 00:39:21;;;;;;;57.03;37.28;;;;;;;6.26;100.00;154103.88;4997295;28;20171;-77
2022/11/14 00:42:05;;;;;;;62.25;37.90;;;;;;;6.24;100.00;154101.28;4998691;28;20038;-75
2022/11/14 00:44:50;;;;;;;60.75;38.28;;;;;;;6.27;100.00;154107.66;5006177;28;20537;-75
2022/11/14 00:47:34;;;;;;;56.40;36.50;;;;;;;6.29;100.00;154112.84;4990597;28;20049;-74
2022/11/14 00:50:18;;;;;;;56.92;36.67;;;;;;;6.26;100.00;154105.13;5007282;28;20565;-75
2022/11/14 00:53:03;;;;;;;58.28;36.78;;;;;;;6.28;100.00;154110.25;5005671;28;20095;-75
2022/11/14 00:55:47;;;;;;;57.60;37.22;;;;;;;6.26;100.00;154103.88;4987559;28;20542;-75
2022/11/14 00:58:32;;;;;;;58.20;37.15;;;;;;;6.26;100.00;154105.13;5006652;28;20038;-74
2022/11/14 01:01:16;;;;;;;58.13;37.60;;;;;;;6.28;100.00;154110.25;5005744;28;20095;-75
2022/11/14 01:04:01;;;;;;;59.10;38.08;;;;;;;6.25;100.00;154102.56;5005469;28;20095;-74
2022/11/14 01:06:45;;;;;;;61.13;38.45;;;;;;;6.23;100.00;154097.44;4992724;28;20030;-74
2022/11/14 01:09:30;;;;;;;61.60;37.58;;;;;;;6.27;100.00;154106.41;5004991;28;20052;-74
2022/11/14 01:12:14;;;;;;;56.72;37.22;;;;;;;6.24;100.00;154101.28;4998847;28;20483;-75
2022/11/14 01:14:57;;;;;;;62.05;38.47;;;;;;;6.22;100.00;154096.19;5005361;28;20042;-74
2022/11/14 01:17:42;;;;;;;64.97;38.95;;;;;;;6.26;100.00;154103.88;5010869;28;20061;-74
2022/11/14 01:20:26;;;;;;;63.47;39.95;;;;;;;6.22;100.00;154094.91;5005466;28;20025;-74
2022/11/14 01:23:12;;;;;;;62.92;39.40;;;;;;;6.24;100.00;154100.03;5003938;28;20038;-74
2022/11/14 01:26:17;;;;;;;63.92;38.08;;;;;;;6.21;100.00;154092.34;5006341;28;20030;-74
2022/11/14 01:29:01;;;;;;;63.42;40.67;;;;;;;6.20;100.00;154091.06;5001602;28;20053;-74
2022/11/14 01:31:45;;;;;;;64.80;40.15;;;;;;;6.23;100.00;154097.44;5021647;28;20953;-74
2022/11/14 01:34:29;;;;;;;64.20;39.88;;;;;;;6.28;100.00;154108.97;5012003;28;20562;-74
2022/11/14 01:37:13;;;;;;;62.00;38.30;;;;;;;6.22;100.00;154094.91;5005241;28;20466;-75
2022/11/14 01:39:57;;;;;;;63.55;39.88;;;;;;;6.23;100.00;154097.44;5001335;28;20038;-74
2022/11/14 01:42:42;;;;;;;65.90;39.50;;;;;;;6.21;100.00;154092.34;5000113;28;20045;-75
2022/11/14 01:45:54;;;;;;;57.35;38.20;;;;;;;6.24;100.00;154101.28;5005105;28;20033;-74
2022/11/14 01:49:01;;;;;;;63.35;39.88;;;;;;;6.21;100.00;154092.34;4989089;28;20515;-74
2022/11/14 01:52:05;;;;;;;63.22;39.28;;;;;;;6.18;100.00;154085.94;4996749;28;20053;-74
2022/11/14 01:54:53;;;;;;;67.13;40.33;;;;;;;6.14;100.00;154075.72;5016907;28;20041;-76
2022/11/14 01:57:45;;;;;;;62.65;39.78;;;;;;;6.14;100.00;154074.41;5017448;28;20037;-74
2022/11/14 02:00:29;;;;;;;67.68;41.25;;;;;;;6.19;100.00;154087.22;4998780;28;20080;-74
2022/11/14 02:03:15;;;;;;;68.72;41.58;;;;;;;6.17;100.00;154082.09;5005062;28;20508;-75
2022/11/14 02:06:01;;;;;;;68.65;41.38;;;;;;;6.18;100.00;154085.94;5000580;28;20671;-75
2022/11/14 02:08:47;;;;;;;69.75;41.67;;;;;;;6.20;100.00;154091.06;5022315;28;20045;-75
2022/11/14 02:11:37;;;;;;;66.28;40.72;;;;;;;6.22;100.00;154094.91;5017189;28;20037;-75
2022/11/14 02:14:21;;;;;;;72.03;42.80;;;;;;;6.18;100.00;154085.94;5004942;28;20073;-75
2022/11/14 02:17:05;;;;;;;75.50;42.47;;;;;;;6.17;100.00;154083.38;5001705;28;20118;-75
2022/11/14 02:19:56;;;;;;;68.30;41.50;;;;;;;6.16;100.00;154080.84;5003387;28;20061;-75
2022/11/14 02:22:41;;;;;;;71.90;42.53;;;;;;;6.14;100.00;154074.41;4985473;28;20029;-74
2022/11/14 02:25:26;;;;;;;69.20;41.90;;;;;;;6.20;100.00;154089.78;5004931;28;20081;-75
2022/11/14 02:28:10;;;;;;;68.82;41.25;;;;;;;6.18;100.00;154085.94;4996330;28;20038;-75
2022/11/14 02:30:55;;;;;;;66.95;41.30;;;;;;;6.14;100.00;154074.41;4998106;28;20863;-74
2022/11/14 02:33:39;;;;;;;65.70;40.85;;;;;;;6.15;100.00;154078.25;5015266;28;20032;-75
2022/11/14 02:36:23;;;;;;;70.82;41.65;;;;;;;6.17;100.00;154082.09;5003487;28;20033;-74
2022/11/14 02:39:07;;;;;;;68.63;41.67;;;;;;;6.18;100.00;154085.94;4991108;28;20029;-74
2022/11/14 02:41:52;;;;;;;67.22;40.47;;;;;;;6.16;100.00;154080.84;5003380;28;20034;-75
2022/11/14 02:44:36;;;;;;;67.28;42.10;;;;;;;6.14;100.00;154074.41;4981089;28;20121;-74
2022/11/14 02:47:23;;;;;;;69.72;41.08;;;;;;;6.14;100.00;154074.41;5002900;28;20037;-74
2022/11/14 02:50:08;;;;;;;69.72;41.83;;;;;;;6.14;100.00;154074.41;5002992;28;20033;-76
2022/11/14 02:52:52;;;;;;;68.53;41.47;;;;;;;6.12;100.00;154069.31;4999963;28;20034;-74
2022/11/14 02:55:37;;;;;;;68.95;42.40;;;;;;;6.10;100.00;154064.19;5001618;28;20034;-73
2022/11/14 02:58:21;;;;;;;64.53;40.65;;;;;;;6.12;100.00;154069.31;5003937;28;20073;-74
2022/11/14 03:01:05;;;;;;;67.88;41.20;;;;;;;6.12;100.00;154069.31;4999764;28;20040;-75
2022/11/14 03:03:49;;;;;;;65.70;41.10;;;;;;;6.09;100.00;154061.66;4997848;28;20066;-74
2022/11/14 03:06:36;;;;;;;70.28;41.33;;;;;;;6.16;100.00;154080.84;4996680;28;20048;-75
2022/11/14 03:09:20;;;;;;;66.85;41.47;;;;;;;6.09;100.00;154062.91;4986715;28;20034;-74
2022/11/14 03:12:05;;;;;;;68.63;42.25;;;;;;;6.09;100.00;154062.91;4986336;28;20389;-75
2022/11/14 03:14:49;;;;;;;69.20;43.22;;;;;;;6.11;100.00;154066.75;4990049;28;20121;-73
2022/11/14 03:17:34;;;;;;;72.70;42.60;;;;;;;6.10;100.00;154065.44;5004779;28;20034;-73
2022/11/14 03:20:18;;;;;;;70.18;41.95;;;;;;;6.09;100.00;154061.66;4989518;28;20034;-74
2022/11/14 03:23:03;;;;;;;71.30;43.30;;;;;;;6.06;100.00;154055.22;5000007;28;20056;-73
2022/11/14 03:25:48;;;;;;;73.03;42.95;;;;;;;6.07;100.00;154057.81;5002383;28;20504;-74
2022/11/14 03:28:32;;;;;;;67.65;42.45;;;;;;;6.08;100.00;154059.06;5006794;28;20665;-74
2022/11/14 03:31:17;;;;;;;73.22;43.65;;;;;;;6.08;100.00;154060.34;5006829;28;20048;-73
2022/11/14 03:34:01;;;;;;;71.20;42.78;;;;;;;6.04;100.00;154051.38;4997088;28;20078;-74
2022/11/14 03:36:46;;;;;;;68.78;41.67;;;;;;;6.04;100.00;154051.38;4988554;28;20080;-75
2022/11/14 03:39:30;;;;;;;71.22;43.55;;;;;;;6.09;100.00;154061.66;5002512;28;20033;-75
2022/11/14 03:42:16;;;;;;;70.85;42.80;;;;;;;6.09;100.00;154061.66;4995091;28;20034;-76
2022/11/14 03:45:01;;;;;;;70.57;43.78;;;;;;;6.08;100.00;154059.06;5009843;28;20038;-75
2022/11/14 03:47:45;;;;;;;73.20;44.15;;;;;;;6.11;100.00;154066.75;5007282;28;20474;-74
2022/11/14 03:50:29;;;;;;;69.90;42.55;;;;;;;6.10;100.00;154065.44;5009428;28;20048;-75
2022/11/14 03:53:14;;;;;;;76.22;44.90;;;;;;;6.06;100.00;154053.97;5009608;28;20042;-74
2022/11/14 03:55:58;;;;;;;74.90;44.83;;;;;;;6.04;100.00;154050.13;4995706;28;20084;-75
2022/11/14 03:58:42;;;;;;;74.70;44.92;;;;;;;6.08;100.00;154059.06;5007997;28;20041;-75
2022/11/14 04:01:28;;;;;;;74.13;43.35;;;;;;;6.12;100.00;154070.63;4993499;28;20038;-75
2022/11/14 04:04:12;;;;;;;73.10;44.38;;;;;;;6.08;100.00;154060.34;5006866;28;20084;-74
2022/11/14 04:06:56;;;;;;;71.07;43.28;;;;;;;6.04;100.00;154050.13;4994581;28;20463;-74
2022/11/14 04:09:43;;;;;;;76.28;45.03;;;;;;;6.04;100.00;154050.13;5008627;28;20037;-75
2022/11/14 04:12:28;;;;;;;71.47;42.58;;;;;;;6.03;100.00;154047.59;4991742;28;20133;-75
2022/11/14 04:15:12;;;;;;;73.70;43.58;;;;;;;5.99;100.00;154037.31;5008629;28;20403;-75
2022/11/14 04:17:56;;;;;;;71.35;41.83;;;;;;;6.07;100.00;154057.81;5008941;28;20042;-75
2022/11/14 04:20:40;;;;;;;71.70;42.88;;;;;;;6.02;100.00;154046.28;5002875;28;20034;-75
2022/11/14 04:23:24;;;;;;;66.97;40.90;;;;;;;6.06;100.00;154053.97;5007341;28;20042;-72
2022/11/14 04:26:08;;;;;;;70.68;41.97;;;;;;;6.02;100.00;154046.28;5007219;28;20030;-75
2022/11/14 04:28:53;;;;;;;73.68;43.13;;;;;;;6.00;100.00;154041.16;4990913;28;20042;-72
2022/11/14 04:31:38;;;;;;;68.57;41.85;;;;;;;5.97;100.00;154033.50;5007246;28;20033;-74
2022/11/14 04:34:22;;;;;;;68.38;41.42;;;;;;;5.93;100.00;154023.19;5007391;28;20442;-75
2022/11/14 04:37:06;;;;;;;67.32;41.17;;;;;;;6.03;100.00;154047.59;5007888;28;20034;-75
2022/11/14 04:39:51;;;;;;;67.82;40.65;;;;;;;5.97;100.00;154033.50;4992929;28;20022;-74
2022/11/14 04:42:35;;;;;;;69.18;42.00;;;;;;;5.99;100.00;154038.63;5002229;28;20038;-74
2022/11/14 04:45:19;;;;;;;68.97;41.90;;;;;;;5.95;100.00;154027.03;5006330;28;20038;-75
2022/11/14 04:48:03;;;;;;;65.03;41.70;;;;;;;5.96;100.00;154030.94;5006723;28;20060;-74
2022/11/14 04:50:48;;;;;;;67.95;42.05;;;;;;;5.93;100.00;154023.19;5006381;28;20037;-72
2022/11/14 04:53:32;;;;;;;67.80;41.20;;;;;;;5.93;100.00;154021.94;5007064;28;20030;-73
2022/11/14 04:56:16;;;;;;;66.30;41.15;;;;;;;5.98;100.00;154036.03;5005417;28;20037;-73
2022/11/14 04:59:00;;;;;;;69.30;41.47;;;;;;;5.99;100.00;154037.31;4991929;28;20116;-74
2022/11/14 05:01:44;;;;;;;70.47;41.53;;;;;;;5.93;100.00;154023.19;5022178;28;20030;-73
2022/11/14 05:04:29;;;;;;;67.78;40.60;;;;;;;5.92;100.00;154020.66;4991384;28;20491;-73
2022/11/14 05:07:14;;;;;;;66.32;40.38;;;;;;;5.92;100.00;154019.41;5006431;28;20076;-75
2022/11/14 05:09:58;;;;;;;66.82;41.85;;;;;;;5.94;100.00;154025.78;4994811;28;20040;-74
2022/11/14 05:12:42;;;;;;;67.22;41.53;;;;;;;5.94;100.00;154025.78;5007455;28;20041;-74
2022/11/14 05:15:27;;;;;;;65.25;41.22;;;;;;;5.94;100.00;154024.50;4991123;28;20038;-75
2022/11/14 05:18:11;;;;;;;68.43;40.67;;;;;;;5.90;100.00;154015.56;5000967;28;20034;-75
2022/11/14 05:21:00;;;;;;;70.72;42.60;;;;;;;5.92;100.00;154020.66;5020374;28;20193;-73
2022/11/14 05:23:44;;;;;;;65.93;41.75;;;;;;;5.93;100.00;154021.94;5005973;28;20033;-74
2022/11/14 05:26:28;;;;;;;65.70;40.47;;;;;;;5.93;100.00;154023.19;5004693;28;20034;-75
2022/11/14 05:29:12;;;;;;;65.70;40.95;;;;;;;5.95;100.00;154028.41;5020568;28;20574;-75
2022/11/14 05:31:56;;;;;;;68.45;41.20;;;;;;;5.94;100.00;154025.78;4990581;28;20033;-75
2022/11/14 05:34:40;;;;;;;67.30;41.78;;;;;;;5.95;100.00;154027.03;5003417;28;20434;-74
2022/11/14 05:37:25;;;;;;;71.25;42.30;;;;;;;5.88;100.00;154010.44;5006510;28;20380;-74
2022/11/14 05:40:09;;;;;;;69.47;41.75;;;;;;;5.88;100.00;154010.44;5007037;28;20033;-74
2022/11/14 05:42:55;;;;;;;68.55;42.08;;;;;;;5.84;100.00;154001.47;4989584;28;20045;-76
2022/11/14 05:45:39;;;;;;;70.65;43.00;;;;;;;5.87;100.00;154007.88;5001253;28;20060;-74
2022/11/14 05:48:23;;;;;;;67.85;43.30;;;;;;;5.85;100.00;154002.75;5003238;28;20045;-74
2022/11/14 05:51:10;;;;;;;67.90;42.22;;;;;;;5.87;100.00;154007.88;5006989;28;20038;-75
2022/11/14 05:53:54;;;;;;;71.93;42.92;;;;;;;5.87;100.00;154006.59;5005783;28;20657;-75
2022/11/14 05:56:38;;;;;;;72.18;44.05;;;;;;;5.83;100.00;153997.63;5006264;28;20041;-74
2022/11/14 05:59:22;;;;;;;76.00;44.05;;;;;;;5.89;100.00;154011.72;5020237;28;20026;-75
2022/11/14 06:02:07;;;;;;;72.07;43.47;;;;;;;5.79;100.00;153987.41;5005043;28;20638;-75
2022/11/14 06:04:51;;;;;;;71.25;43.35;;;;;;;5.82;100.00;153996.38;5009670;28;20034;-75
2022/11/14 06:07:35;;;;;;;73.25;43.40;;;;;;;5.81;100.00;153992.53;4991280;28;20277;-75
2022/11/14 06:10:19;;;;;;;75.38;43.15;;;;;;;5.84;100.00;154001.47;4995894;28;20415;-74
2022/11/14 06:13:03;;;;;;;73.78;43.78;;;;;;;5.81;100.00;153993.78;4992685;28;20037;-73
2022/11/14 06:15:48;;;;;;;76.90;43.20;;;;;;;5.87;100.00;154006.59;5003493;28;20038;-74
2022/11/14 06:18:34;;;;;;;75.93;44.63;;;;;;;5.88;100.00;154009.13;5004432;28;20025;-75
2022/11/14 06:21:20;;;;;;;74.10;42.40;;;;;;;5.88;100.00;154010.44;5020164;28;20044;-74
2022/11/14 06:24:05;;;;;;;73.82;44.60;;;;;;;5.85;100.00;154002.75;5004182;28;20037;-75
2022/11/14 06:26:49;;;;;;;72.82;43.05;;;;;;;5.85;100.00;154002.75;5006609;28;20060;-75
2022/11/14 06:29:34;;;;;;;76.78;44.00;;;;;;;5.83;100.00;153998.91;5006107;28;20034;-75
2022/11/14 06:32:18;;;;;;;70.25;43.45;;;;;;;5.83;100.00;153997.63;5006609;28;20178;-75
2022/11/14 06:35:07;;;;;;;70.25;42.58;;;;;;;5.83;100.00;153998.91;4981692;28;20029;-73
2022/11/14 06:37:51;;;;;;;72.18;43.10;;;;;;;5.88;100.00;154009.13;4988061;28;20037;-74
2022/11/14 06:40:35;;;;;;;70.85;44.00;;;;;;;5.86;100.00;154005.34;5006509;28;20068;-74
2022/11/14 06:43:19;;;;;;;72.47;43.45;;;;;;;5.82;100.00;153995.06;5002701;28;20157;-73
2022/11/14 06:46:05;;;;;;;75.07;44.63;;;;;;;5.83;100.00;153997.63;4996316;28;20042;-75
2022/11/14 06:48:51;;;;;;;76.30;44.78;;;;;;;5.82;100.00;153996.38;4992318;28;20551;-75
2022/11/14 06:51:35;;;;;;;75.78;43.65;;;;;;;5.87;100.00;154007.88;5002079;28;20037;-74
2022/11/14 06:54:19;;;;;;;79.70;44.67;;;;;;;5.81;100.00;153992.53;5002405;28;20035;-75
2022/11/14 06:57:03;;;;;;;84.18;45.90;;;;;;;5.83;100.00;153997.63;5005299;28;20034;-75
2022/11/14 06:59:47;;;;;;;78.85;45.33;;;;;;;5.76;100.00;153979.72;5005967;28;20081;-74
2022/11/14 07:02:31;;;;;;;80.40;45.97;;;;;;;5.76;100.00;153981.00;5006592;28;20037;-75
2022/11/14 07:05:16;;;;;;;76.40;45.10;;;;;;;5.77;100.00;153982.31;5005466;28;20131;-72
2022/11/14 07:07:59;;;;;;;81.25;45.53;;;;;;;5.76;100.00;153981.00;5005710;28;20468;-72
2022/11/14 07:10:44;;;;;;;84.93;46.70;;;;;;;5.68;100.00;153959.28;5019186;28;20034;-75
2022/11/14 07:13:28;;;;;;;79.28;46.20;;;;;;;5.72;100.00;153969.50;4997844;28;20487;-73
2022/11/14 07:16:13;;;;;;;83.00;46.70;;;;;;;5.71;100.00;153968.25;5020730;28;20117;-74
2022/11/14 07:18:58;;;;;;;79.40;45.13;;;;;;;5.69;100.00;153963.13;5012350;28;20543;-74
2022/11/14 07:21:42;;;;;;;80.70;45.67;;;;;;;5.71;100.00;153968.25;5003945;28;20033;-74
2022/11/14 07:24:26;;;;;;;82.45;46.55;;;;;;;5.69;100.00;153961.81;5007806;28;20495;-72
2022/11/14 07:27:11;;;;;;;84.38;45.47;;;;;;;5.64;100.00;153951.59;5007100;28;20125;-77
2022/11/14 07:29:55;;;;;;;78.63;44.58;;;;;;;5.59;100.00;153937.53;5009150;28;20132;-74
2022/11/14 07:32:39;;;;;;;78.03;43.78;;;;;;;5.57;100.00;153933.69;5010622;28;20038;-74
2022/11/14 07:35:24;;;;;;;82.28;45.10;;;;;;;5.55;100.00;153928.56;5008639;28;20030;-74
2022/11/14 07:38:08;;;;;;;77.97;43.35;;;;;;;5.53;100.00;153923.47;5005961;28;20042;-74
2022/11/14 07:40:57;;;;;;;83.13;44.22;;;;;;;5.56;100.00;153931.16;4989744;28;20061;-75
2022/11/14 07:43:43;;;;;;;85.80;46.72;;;;;;;5.58;100.00;153936.25;5005459;28;20480;-74
2022/11/14 07:46:27;;;;;;;80.38;45.70;;;;;;;5.55;100.00;153927.31;5009108;28;20030;-75
2022/11/14 07:49:11;;;;;;;77.00;43.78;;;;;;;5.59;100.00;153938.78;4994877;28;20050;-74
2022/11/14 07:51:55;;;;;;;73.45;43.33;;;;;;;5.57;100.00;153933.69;5009824;28;20038;-75
2022/11/14 07:54:39;;;;;;;74.93;42.85;;;;;;;5.61;100.00;153943.94;4994117;28;20030;-75
2022/11/14 07:57:26;;;;;;;73.28;43.13;;;;;;;5.63;100.00;153949.06;4992532;28;20103;-75
2022/11/14 08:00:10;;;;;;;72.35;42.30;;;;;;;5.66;100.00;153955.44;5008677;28;20040;-74
2022/11/14 08:02:55;;;;;;;77.13;43.33;;;;;;;5.62;100.00;153945.22;5006653;28;20040;-75
2022/11/14 08:05:39;;;;;;;79.80;45.22;;;;;;;5.68;100.00;153959.28;5003922;28;20025;-76
2022/11/14 08:08:23;;;;;;;86.75;46.92;;;;;;;5.65;100.00;153954.16;5002976;28;20065;-72
2022/11/14 08:11:08;;;;;;;90.03;47.15;;;;;;;5.65;100.00;153952.84;5007052;28;20030;-74
2022/11/14 08:13:52;;;;;;;90.38;47.47;;;;;;;5.62;100.00;153946.47;4993263;28;20034;-75
2022/11/14 08:16:36;;;;;;;90.93;48.58;;;;;;;5.61;100.00;153943.94;5009928;28;20034;-75
2022/11/14 08:19:20;;;;;;;92.53;50.85;;;;;;;5.60;100.00;153940.09;4994445;28;20041;-75
2022/11/14 08:22:05;;;;;;;94.93;48.88;;;;;;;5.62;100.00;153946.47;5008818;28;20124;-75
2022/11/14 08:24:50;;;;;;;96.50;49.25;;;;;;;5.59;100.00;153938.78;4998775;28;20038;-74
2022/11/14 08:27:36;;;;;;;89.65;47.95;;;;;;;5.63;100.00;153949.06;5022032;28;20042;-74
2022/11/14 08:30:20;;;;;;;82.32;45.85;;;;;;;5.69;100.00;153963.13;5007352;28;20769;-74
2022/11/14 08:33:06;;;;;;;81.85;45.60;;;;;;;5.65;100.00;153952.84;5009331;28;20158;-74
2022/11/14 08:35:50;;;;;;;80.13;44.05;;;;;;;5.72;100.00;153970.78;5024444;28;20064;-75
2022/11/14 08:38:34;;;;;;;78.90;43.95;;;;;;;5.79;100.00;153988.69;5003138;28;20044;-75
2022/11/14 08:41:18;;;;;;;73.75;42.33;;;;;;;5.80;100.00;153989.94;5007052;28;20487;-75
2022/11/14 08:44:03;;;;;;;76.95;43.10;;;;;;;5.69;100.00;153961.81;5009256;28;20773;-75
2022/11/14 08:46:49;;;;;;;78.10;43.80;;;;;;;5.71;100.00;153966.91;5006198;28;20038;-75
2022/11/14 08:49:33;;;;;;;87.53;46.92;;;;;;;5.72;100.00;153969.50;5004364;28;20033;-74
2022/11/14 08:52:17;;;;;;;79.88;44.90;;;;;;;5.66;100.00;153956.69;5008636;28;20037;-74
2022/11/14 08:55:01;;;;;;;84.57;45.92;;;;;;;5.70;100.00;153965.66;5003146;28;20065;-76
2022/11/14 08:57:46;;;;;;;79.97;44.47;;;;;;;5.70;100.00;153965.66;4996679;28;20038;-76
2022/11/14 09:00:31;;;;;;;82.80;47.00;;;;;;;5.71;100.00;153966.91;5007866;28;20030;-75
2022/11/14 09:03:15;;;;;;;81.45;43.83;;;;;;;5.73;100.00;153972.09;4993475;28;20121;-75
2022/11/14 09:06:00;;;;;;;75.00;43.33;;;;;;;5.73;100.00;153972.09;5007646;28;20046;-75
2022/11/14 09:08:44;;;;;;;84.00;45.13;;;;;;;5.73;100.00;153973.34;5007429;28;20480;-75
2022/11/14 09:11:28;;;;;;;76.80;43.03;;;;;;;5.77;100.00;153983.56;5009153;28;20048;-76
2022/11/14 09:14:12;;;;;;;77.20;42.65;;;;;;;5.82;100.00;153996.38;5006615;28;20041;-75
2022/11/14 09:16:56;;;;;;;78.47;43.75;;;;;;;5.87;100.00;154006.59;5003660;28;20034;-73
2022/11/14 09:19:43;;;;;;;78.40;42.50;;;;;;;5.82;100.00;153996.38;5009282;28;20034;-75
2022/11/14 09:22:27;;;;;;;72.68;42.08;;;;;;;5.80;100.00;153989.94;5008680;28;20548;-74
2022/11/14 09:25:12;;;;;;;78.60;42.92;;;;;;;5.88;100.00;154010.44;5008809;28;20033;-75
2022/11/14 09:27:57;;;;;;;74.93;42.75;;;;;;;5.89;100.00;154011.72;4998425;28;20038;-74
2022/11/14 09:30:41;;;;;;;78.65;42.78;;;;;;;5.90;100.00;154015.56;5009298;28;20499;-74
2022/11/14 09:33:25;;;;;;;79.22;43.50;;;;;;;5.93;100.00;154021.94;5008120;28;20034;-74
2022/11/14 09:36:14;;;;;;;78.35;42.97;;;;;;;5.93;100.00;154021.94;5007967;28;20045;-75
2022/11/14 09:38:58;;;;;;;77.72;44.00;;;;;;;5.93;100.00;154021.94;5007960;28;20033;-76
2022/11/14 09:41:59;;;;;;;80.53;43.08;;;;;;;5.98;100.00;154034.78;5009915;28;20046;-73
2022/11/14 09:45:02;;;;;;;73.50;42.05;;;;;;;6.03;100.00;154048.84;5006829;28;20030;-75
2022/11/14 09:47:51;;;;;;;80.22;42.75;;;;;;;6.10;100.00;154065.44;5016124;28;20060;-74
2022/11/14 09:50:52;;;;;;;74.38;40.90;;;;;;;6.09;100.00;154062.91;5008580;28;20038;-74
2022/11/14 09:53:45;;;;;;;78.97;43.80;;;;;;;6.04;100.00;154050.13;5007529;28;20030;-75
2022/11/14 09:56:30;;;;;;;76.38;43.10;;;;;;;6.06;100.00;154055.22;5007655;28;20095;-73
2022/11/14 09:59:15;;;;;;;77.53;42.50;;;;;;;6.11;100.00;154066.75;4993463;28;20068;-75
2022/11/14 10:02:11;;;;;;;74.75;42.17;;;;;;;6.12;100.00;154070.63;4992923;28;20097;-73
2022/11/14 10:05:17;;;;;;;77.88;42.88;;;;;;;6.09;100.00;154061.66;5006261;28;20040;-76
2022/11/14 10:08:27;;;;;;;73.97;40.92;;;;;;;6.12;100.00;154069.31;4990372;28;20049;-75
2022/11/14 10:11:33;;;;;;;74.47;41.10;;;;;;;6.14;100.00;154075.72;5023120;28;20427;-75
2022/11/14 10:14:37;;;;;;;76.70;43.40;;;;;;;6.17;100.00;154082.09;5004898;28;20488;-75
2022/11/14 10:17:48;;;;;;;72.63;41.60;;;;;;;6.23;100.00;154097.44;5006204;28;20654;-75
2022/11/14 10:20:38;;;;;;;74.35;41.83;;;;;;;6.26;100.00;154105.13;5002027;28;20046;-77
2022/11/14 10:23:28;;;;;;;74.13;42.38;;;;;;;6.28;100.00;154108.97;5005994;28;20042;-74
2022/11/14 10:26:28;;;;;;;73.50;40.50;;;;;;;6.29;100.00;154111.50;5005173;28;20120;-74
2022/11/14 10:29:48;;;;;;;68.22;40.67;;;;;;;6.27;100.00;154106.41;5004283;28;20037;-74
2022/11/14 10:32:48;;;;;;;70.47;39.55;;;;;;;6.41;100.00;154143.50;4993398;28;20033;-75
2022/11/14 10:35:38;;;;;;;69.82;39.67;;;;;;;6.49;100.00;154162.69;5002812;28;20037;-75
2022/11/14 10:38:37;;;;;;;67.95;39.42;;;;;;;6.46;100.00;154155.06;5005729;28;20042;-74
2022/11/14 10:41:24;;;;;;;61.78;38.05;;;;;;;6.60;100.00;154190.84;5007340;28;20120;-75
2022/11/14 10:44:13;;;;;;;61.42;37.85;;;;;;;6.55;100.00;154178.03;5004019;28;20034;-74
2022/11/14 10:47:03;;;;;;;58.95;36.75;;;;;;;6.60;100.00;154189.59;4992690;28;20834;-74
2022/11/14 10:49:54;;;;;;;58.88;36.58;;;;;;;6.61;100.00;154192.13;4998953;28;20030;-74
2022/11/14 10:52:41;;;;;;;58.80;35.15;;;;;;;6.65;100.00;154201.06;4990676;28;20069;-76
2022/11/14 10:55:26;;;;;;;56.05;35.00;;;;;;;6.73;100.00;154221.59;5010055;28;20026;-75
2022/11/14 10:58:13;;;;;;;54.83;34.92;;;;;;;6.88;100.00;154258.69;5010739;28;20048;-75
2022/11/14 11:01:36;;;;;;;56.47;35.15;;;;;;;6.81;100.00;154242.03;4994317;28;20038;-73
2022/11/14 11:04:31;;;;;;;56.53;34.08;;;;;;;6.89;100.00;154262.50;5009727;28;21309;-75
2022/11/14 11:13:36;;;;;;;53.53;33.13;;;;;;;7.32;100.00;154368.75;5008271;28;20025;-74
2022/11/14 11:16:22;;;;;;;53.90;33.50;;;;;;;7.46;100.00;154404.63;5010285;28;20037;-73
2022/11/14 11:19:25;;;;;;;51.17;32.97;;;;;;;7.26;100.00;154353.41;5009053;28;20030;-75
2022/11/14 11:22:37;;;;;;;56.70;34.20;;;;;;;7.25;100.00;154350.81;5009545;28;20033;-75
2022/11/14 11:25:30;;;;;;;49.55;31.98;;;;;;;7.31;100.00;154367.50;5009558;28;20030;-77
2022/11/14 11:28:14;;;;;;;;;;;;;;;7.36;100.00;154380.25;5010173;28;20061;-74
2022/11/14 11:31:07;;;;;;;53.53;32.67;;;;;;;7.52;100.00;154419.97;5011133;28;20015;-74
2022/11/14 11:33:51;;;;;;;52.05;31.95;;;;;;;7.62;100.00;154444.28;5008450;28;20491;-75
2022/11/14 11:36:41;;;;;;;49.90;31.35;;;;;;;7.78;100.00;154485.28;5008920;28;20073;-74
2022/11/14 11:39:30;;;;;;;49.50;31.08;;;;;;;8.04;100.00;154549.28;5010544;28;20079;-74
2022/11/14 11:42:23;;;;;;;48.13;31.13;;;;;;;8.30;100.00;154613.34;5006379;28;20041;-74
2022/11/14 11:45:16;;;;;;;51.05;32.10;;;;;;;8.33;100.00;154622.34;5004927;28;20045;-76
2022/11/14 11:48:16;;;;;;;46.28;29.95;;;;;;;8.29;100.00;154612.09;5000851;28;20504;-73
2022/11/14 11:51:02;;;;;;;44.25;30.25;;;;;;;8.29;100.00;154610.81;5021440;28;20033;-72
2022/11/14 11:53:57;;;;;;;44.88;28.83;;;;;;;8.26;100.00;154604.38;5000688;28;20038;-74
2022/11/14 11:56:46;;;;;;;47.70;29.63;;;;;;;8.28;100.00;154608.25;5007825;28;20038;-75
2022/11/14 11:59:47;;;;;;;47.80;28.77;;;;;;;8.37;100.00;154631.31;4979284;28;20840;-74
2022/11/14 12:02:32;;;;;;;46.15;29.77;;;;;;;8.48;100.00;154659.53;5003551;28;20392;-75
2022/11/14 12:05:25;;;;;;;49.40;30.10;;;;;;;8.50;100.00;154663.38;5006093;28;20046;-73
2022/11/14 12:08:34;;;;;;;48.20;29.38;;;;;;;8.60;100.00;154687.72;5019902;28;20046;-76
2022/11/14 12:11:21;;;;;;;49.47;31.42;;;;;;;8.67;100.00;154706.94;4994678;28;20042;-73
2022/11/14 12:14:37;;;;;;;46.40;29.90;;;;;;;8.76;100.00;154730.00;4994468;28;20030;-75
2022/11/14 12:17:52;;;;;;;46.22;29.05;;;;;;;8.99;100.00;154786.41;4978943;28;20509;-76
2022/11/14 12:21:02;;;;;;;50.92;30.33;;;;;;;8.93;100.00;154771.03;5006628;28;20134;-75
2022/11/14 12:23:53;;;;;;;47.45;30.50;;;;;;;8.90;100.00;154764.59;5001990;28;20049;-75
2022/11/14 12:26:45;;;;;;;49.60;29.80;;;;;;;8.98;100.00;154782.53;5008711;28;20554;-75
2022/11/14 12:29:52;;;;;;;44.33;28.88;;;;;;;9.26;100.00;154854.31;5003052;28;20038;-73
2022/11/14 12:32:44;;;;;;;44.90;29.42;;;;;;;9.01;100.00;154790.25;5011268;28;20068;-75
2022/11/14 12:35:33;;;;;;;53.53;31.35;;;;;;;8.62;100.00;154692.84;5003712;28;20106;-74
2022/11/14 12:38:19;;;;;;;49.95;30.98;;;;;;;8.34;100.00;154623.59;5009112;28;20042;-74
2022/11/14 12:41:06;;;;;;;51.10;31.92;;;;;;;8.38;100.00;154635.16;5011743;28;20065;-75
2022/11/14 12:43:50;;;;;;;53.38;31.95;;;;;;;8.82;100.00;154744.09;4990695;28;20424;-74
2022/11/14 12:47:03;;;;;;;49.10;31.17;;;;;;;9.30;100.00;154864.56;5001221;28;20462;-74